Weather reports worldwide

Advertisment
Great Dun Fell, United Kingdom (3227): temperature & dewpoint: 28.07.2020 21:00:00 - 03.08.2020 21:00:00 (BST)Great Dun Fell, United Kingdom (3227): wind speed & gusts: 28.07.2020 21:00:00 - 03.08.2020 21:00:00 (BST)Great Dun Fell, United Kingdom (3227): wind direction: 28.07.2020 21:00:00 - 03.08.2020 21:00:00 (BST)
Date & Time tt [°C] td [°C] ff [km/h] ff [kn] fx [km/h] fx [kn] dd
03.08.2020 21:00:00 7,3 6,2 26 14 - - W
03.08.2020 20:00:00 7,7 6,0 31 17 - - W
03.08.2020 19:00:00 8,0 5,6 24 13 - - W
03.08.2020 18:00:00 8,0 5,3 22 12 - - W
03.08.2020 17:00:00 7,8 5,1 26 14 - - W
03.08.2020 16:00:00 7,5 4,5 29 16 - - W
03.08.2020 15:00:00 7,3 4,8 37 20 46 25 WNW
03.08.2020 14:00:00 8,1 4,1 22 12 - - W
03.08.2020 13:00:00 7,2 3,7 34 18 48 26 W
03.08.2020 12:00:00 6,9 4,2 31 17 - - W
03.08.2020 11:00:00 6,9 2,4 22 12 - - WNW
03.08.2020 10:00:00 6,5 2,5 24 13 - - WNW
03.08.2020 09:00:00 6,0 1,5 22 12 - - NW
03.08.2020 08:00:00 5,3 3,6 24 13 - - NW
03.08.2020 07:00:00 5,2 5,2 22 12 - - WNW
03.08.2020 06:00:00 5,2 5,2 21 11 - - WNW
03.08.2020 05:00:00 5,7 4,6 28 15 - - WNW
03.08.2020 04:00:00 5,5 5,5 21 11 - - WNW
03.08.2020 03:00:00 6,0 6,0 21 11 - - WNW
03.08.2020 02:00:00 6,8 6,8 16 9 - - W
03.08.2020 01:00:00 6,8 6,8 18 10 - - W
03.08.2020 00:00:00 7,1 7,1 22 12 - - W
02.08.2020 23:00:00 6,9 6,9 28 15 - - WSW
02.08.2020 22:00:00 7,2 7,2 22 12 - - W
02.08.2020 21:00:00 7,6 7,0 22 12 - - W
02.08.2020 20:00:00 7,9 6,6 24 13 - - W
02.08.2020 19:00:00 8,5 5,7 29 16 50 27 WNW
02.08.2020 18:00:00 8,9 6,3 42 23 48 26 WNW
02.08.2020 17:00:00 9,2 6,3 35 19 50 27 W
02.08.2020 16:00:00 9,0 7,2 41 22 52 28 W
02.08.2020 15:00:00 9,4 7,2 41 22 54 29 W
02.08.2020 14:00:00 8,9 8,9 31 17 - - W
02.08.2020 13:00:00 8,0 7,8 34 18 - - W
02.08.2020 12:00:00 7,8 7,6 37 20 48 26 W
02.08.2020 11:00:00 7,6 7,6 37 20 46 25 W
02.08.2020 10:00:00 7,6 7,6 31 17 - - WNW
02.08.2020 09:00:00 7,5 7,5 26 14 - - W
02.08.2020 08:00:00 7,3 7,3 31 17 - - WSW
02.08.2020 07:00:00 7,1 7,1 31 17 - - WSW
02.08.2020 06:00:00 7,0 7,0 31 17 - - WSW
02.08.2020 05:00:00 7,2 7,2 35 19 - - WSW
02.08.2020 04:00:00 7,5 7,5 34 18 - - WSW
02.08.2020 03:00:00 7,8 7,8 31 17 - - W
02.08.2020 02:00:00 7,9 7,9 31 17 - - WSW
02.08.2020 01:00:00 7,6 7,6 31 17 - - SW
02.08.2020 00:00:00 7,8 7,8 21 11 - - SW
01.08.2020 23:00:00 7,9 7,9 24 13 - - WSW
01.08.2020 22:00:00 8,1 8,1 16 9 - - WSW
01.08.2020 21:00:00 8,2 7,6 26 14 - - W
01.08.2020 20:00:00 8,6 7,5 28 15 46 25 W
01.08.2020 19:00:00 9,0 7,6 41 22 55 30 W
01.08.2020 18:00:00 10,3 5,0 42 23 54 29 W
01.08.2020 17:00:00 10,0 7,1 42 23 52 28 W
01.08.2020 16:00:00 9,8 7,8 39 21 54 29 W
01.08.2020 15:00:00 10,4 8,2 48 26 61 33 W
01.08.2020 14:00:00 9,6 9,6 42 23 50 27 W
01.08.2020 13:00:00 10,0 10,0 31 17 - - W
01.08.2020 12:00:00 10,1 10,1 34 18 - - W
01.08.2020 11:00:00 11,0 11,0 37 20 48 26 W
01.08.2020 10:00:00 11,3 11,3 29 16 - - WSW
01.08.2020 09:00:00 11,2 11,2 28 15 - - SW
01.08.2020 08:00:00 11,3 11,3 26 14 - - SW
01.08.2020 07:00:00 11,1 11,1 24 13 - - WSW
01.08.2020 06:00:00 11,2 11,2 24 13 - - WSW
01.08.2020 05:00:00 11,2 11,2 26 14 - - WSW
01.08.2020 04:00:00 11,3 11,3 24 13 - - W
01.08.2020 03:00:00 11,4 11,4 28 15 - - SW
01.08.2020 02:00:00 11,3 11,3 35 19 - - WSW
01.08.2020 01:00:00 11,3 11,3 34 18 50 27 SW
01.08.2020 00:00:00 10,9 10,9 39 21 59 32 SW
31.07.2020 23:00:00 13,1 13,1 52 28 59 32 SW
31.07.2020 22:00:00 13,9 13,9 52 28 57 31 SW
31.07.2020 21:00:00 14,0 13,5 39 21 55 30 SSW
31.07.2020 20:00:00 15,8 12,6 39 21 54 29 SSW
31.07.2020 19:00:00 19,1 14,5 44 24 52 28 SW
31.07.2020 18:00:00 20,1 14,7 34 18 - - SSW
31.07.2020 17:00:00 21,3 13,4 37 20 57 31 SW
31.07.2020 16:00:00 22,6 12,5 48 26 72 39 SSW
31.07.2020 15:00:00 22,5 12,5 48 26 67 36 S
31.07.2020 14:00:00 22,3 11,0 50 27 74 40 S
31.07.2020 13:00:00 22,2 9,2 57 31 74 40 S
31.07.2020 12:00:00 21,8 8,9 48 26 61 33 S
31.07.2020 11:00:00 20,0 7,9 44 24 59 32 S
31.07.2020 10:00:00 18,5 7,6 46 25 57 31 S
31.07.2020 09:00:00 18,4 6,9 50 27 70 38 S
31.07.2020 08:00:00 17,3 7,4 57 31 72 39 S
31.07.2020 07:00:00 16,2 7,5 57 31 65 35 S
31.07.2020 06:00:00 15,4 6,4 55 30 67 36 SSW
31.07.2020 05:00:00 15,2 8,4 57 31 68 37 S
31.07.2020 04:00:00 15,8 8,4 54 29 65 35 S
31.07.2020 03:00:00 15,8 9,4 52 28 65 35 S
31.07.2020 02:00:00 15,8 10,1 50 27 61 33 S
31.07.2020 01:00:00 16,4 9,7 46 25 55 30 S
31.07.2020 00:00:00 16,1 10,3 42 23 52 28 S
30.07.2020 23:00:00 16,1 10,1 41 22 46 25 S
30.07.2020 22:00:00 15,3 11,2 35 19 - - S
30.07.2020 21:00:00 14,8 11,2 31 17 - - S
30.07.2020 20:00:00 14,5 10,8 31 17 - - S
30.07.2020 19:00:00 14,3 10,3 34 18 - - SSW
30.07.2020 18:00:00 13,2 11,0 35 19 - - SW
30.07.2020 17:00:00 12,5 10,5 37 20 48 26 SW
30.07.2020 16:00:00 11,5 9,8 41 22 46 25 SW
30.07.2020 15:00:00 10,9 9,6 29 16 46 25 SW
30.07.2020 14:00:00 10,4 10,1 37 20 46 25 SW
30.07.2020 13:00:00 9,7 9,7 39 21 50 27 SW
30.07.2020 12:00:00 9,2 9,2 37 20 52 28 SW
30.07.2020 11:00:00 9,4 9,4 39 21 48 26 SW
30.07.2020 10:00:00 9,1 9,1 42 23 48 26 SSW
30.07.2020 09:00:00 8,7 8,7 35 19 - - SSW
30.07.2020 08:00:00 8,5 8,5 41 22 48 26 SSW
30.07.2020 07:00:00 8,0 8,0 44 24 50 27 SSW
30.07.2020 06:00:00 7,8 7,8 37 20 - - SSW
30.07.2020 05:00:00 7,2 7,2 29 16 - - SW
30.07.2020 04:00:00 7,3 7,3 31 17 - - SW
30.07.2020 03:00:00 6,5 6,5 28 15 - - SW
30.07.2020 02:00:00 5,9 5,9 28 15 - - SW
30.07.2020 01:00:00 6,0 5,5 29 16 - - SW
30.07.2020 00:00:00 5,7 5,4 34 18 - - WSW
29.07.2020 23:00:00 6,0 6,0 31 17 - - WSW
29.07.2020 22:00:00 6,2 5,9 26 14 - - WSW
29.07.2020 21:00:00 6,4 5,4 29 16 - - W
29.07.2020 20:00:00 6,8 4,8 31 17 46 25 W
29.07.2020 19:00:00 7,7 4,9 39 21 48 26 W
29.07.2020 18:00:00 8,0 5,2 42 23 52 28 W
29.07.2020 17:00:00 8,2 8,1 41 22 54 29 W
29.07.2020 16:00:00 8,5 8,5 42 23 55 30 W
29.07.2020 15:00:00 7,7 7,7 44 24 61 33 W
29.07.2020 14:00:00 7,0 7,0 50 27 63 34 W
29.07.2020 13:00:00 7,0 7,0 52 28 63 34 W
29.07.2020 12:00:00 6,4 6,4 52 28 65 35 W
29.07.2020 11:00:00 6,2 6,2 44 24 57 31 W
29.07.2020 10:00:00 5,4 5,4 50 27 65 35 W
29.07.2020 09:00:00 5,3 5,3 48 26 65 35 W
29.07.2020 08:00:00 5,1 5,1 54 29 74 40 W
29.07.2020 07:00:00 5,7 5,7 54 29 68 37 W
29.07.2020 06:00:00 5,8 5,8 52 28 67 36 W
29.07.2020 05:00:00 5,8 5,8 52 28 68 37 W
29.07.2020 04:00:00 5,8 5,8 54 29 70 38 W
29.07.2020 03:00:00 5,8 5,8 54 29 67 36 W
29.07.2020 02:00:00 5,7 5,7 55 30 72 39 W
29.07.2020 01:00:00 5,3 5,3 57 31 78 42 W
29.07.2020 00:00:00 5,1 5,1 57 31 70 38 W
28.07.2020 23:00:00 5,0 5,0 54 29 67 36 W
28.07.2020 22:00:00 5,4 5,4 61 33 76 41 W
28.07.2020 21:00:00 6,1 6,1 59 32 80 43 W

tt = temperature
td = dewpoint
ff = wind speed
fx = gusts
dd = wind direction

Next stations